createdAt,value
2022-12-12T00:02:42.193Z,9.27
2022-12-12T00:05:29.718Z,9.10
2022-12-12T00:08:16.714Z,8.73
2022-12-12T00:11:04.343Z,10.00
2022-12-12T00:13:52.287Z,8.57
2022-12-12T00:16:39.840Z,10.20
2022-12-12T00:19:26.753Z,9.90
2022-12-12T00:22:13.739Z,9.30
2022-12-12T00:25:00.715Z,10.13
2022-12-12T00:27:47.803Z,9.97
2022-12-12T00:30:34.926Z,10.33
2022-12-12T00:33:22.830Z,11.13
2022-12-12T00:36:10.459Z,9.90
2022-12-12T00:39:00.699Z,10.07
2022-12-12T00:41:47.712Z,11.87
2022-12-12T00:44:35.023Z,10.87
2022-12-12T00:47:22.164Z,10.10
2022-12-12T00:50:10.290Z,10.23
2022-12-12T00:52:57.840Z,9.60
2022-12-12T00:55:44.779Z,9.80
2022-12-12T00:58:32.308Z,10.37
2022-12-12T01:01:23.122Z,10.13
2022-12-12T01:04:10.051Z,9.10
2022-12-12T01:06:58.886Z,9.73
2022-12-12T01:09:45.744Z,10.43
2022-12-12T01:12:32.959Z,10.20
2022-12-12T01:15:20.196Z,9.97
2022-12-12T01:18:07.331Z,9.83
2022-12-12T01:20:54.211Z,10.53
2022-12-12T01:23:42.552Z,9.90
2022-12-12T01:26:29.754Z,10.67
2022-12-12T01:29:16.669Z,10.73
2022-12-12T01:32:04.424Z,11.13
2022-12-12T01:34:51.453Z,10.50
2022-12-12T01:37:40.613Z,10.73
2022-12-12T01:40:30.544Z,10.47
2022-12-12T01:43:19.349Z,11.13
2022-12-12T01:46:30.365Z,11.70
2022-12-12T01:49:22.685Z,10.43
2022-12-12T01:52:14.074Z,11.07
2022-12-12T01:55:04.989Z,11.17
2022-12-12T01:57:55.174Z,11.30
2022-12-12T02:00:42.445Z,11.30
2022-12-12T02:03:30.125Z,10.43
2022-12-12T02:06:20.041Z,11.73
2022-12-12T02:09:10.670Z,11.43
2022-12-12T02:11:58.346Z,10.83
2022-12-12T02:14:50.034Z,10.97
2022-12-12T02:18:03.326Z,11.03
2022-12-12T02:21:05.598Z,11.47
2022-12-12T02:24:28.215Z,10.93
2022-12-12T02:27:34.895Z,11.73
2022-12-12T02:30:23.866Z,11.17
2022-12-12T02:33:34.790Z,10.23
2022-12-12T02:36:29.932Z,10.90
2022-12-12T02:39:22.948Z,11.00
2022-12-12T02:42:21.112Z,10.63
2022-12-12T02:45:15.060Z,10.37
2022-12-12T02:48:08.104Z,10.87
2022-12-12T02:50:58.794Z,11.00
2022-12-12T02:53:45.731Z,10.73
2022-12-12T02:56:45.608Z,11.63
2022-12-12T02:59:35.990Z,11.40
2022-12-12T03:02:44.796Z,11.87
2022-12-12T03:06:00.420Z,11.47
2022-12-12T03:08:58.687Z,10.50
2022-12-12T03:11:56.870Z,10.97
2022-12-12T03:14:54.538Z,10.17
2022-12-12T03:17:44.424Z,12.33
2022-12-12T03:20:38.524Z,11.30
2022-12-12T03:23:30.224Z,10.53
2022-12-12T03:26:22.728Z,10.20
2022-12-12T03:29:14.169Z,10.17
2022-12-12T03:32:06.440Z,9.90
2022-12-12T03:35:00.044Z,9.77
2022-12-12T03:37:51.589Z,10.10
2022-12-12T03:40:43.428Z,11.10
2022-12-12T03:43:35.144Z,10.77
2022-12-12T03:46:27.722Z,11.00
2022-12-12T03:49:18.709Z,10.67
2022-12-12T03:52:11.073Z,11.17
2022-12-12T03:55:01.775Z,12.40
2022-12-12T03:57:57.084Z,12.47
2022-12-12T04:00:47.195Z,11.53
2022-12-12T04:03:40.688Z,12.70
2022-12-12T04:06:33.724Z,11.20
2022-12-12T04:09:41.545Z,12.20
2022-12-12T04:12:53.208Z,13.60
2022-12-12T04:16:04.075Z,12.37
2022-12-12T04:18:56.885Z,12.27
2022-12-12T04:22:07.993Z,12.77
2022-12-12T04:25:00.333Z,12.73
2022-12-12T04:27:53.898Z,12.97
2022-12-12T04:30:41.069Z,14.03
2022-12-12T04:33:32.275Z,13.83
2022-12-12T04:36:22.054Z,14.73
2022-12-12T04:39:12.502Z,14.47
2022-12-12T04:42:01.430Z,15.03
2022-12-12T04:44:52.000Z,13.67
2022-12-12T04:47:40.654Z,11.50
2022-12-12T04:50:31.601Z,12.03
2022-12-12T04:53:25.940Z,11.07
2022-12-12T04:56:17.662Z,11.60
2022-12-12T04:59:06.375Z,11.47
2022-12-12T05:01:59.176Z,12.73
2022-12-12T05:04:52.179Z,12.97
2022-12-12T05:07:43.399Z,12.67
2022-12-12T05:10:30.847Z,14.03
2022-12-12T05:13:20.123Z,14.43
2022-12-12T05:16:14.133Z,13.13
2022-12-12T05:19:01.506Z,14.30
2022-12-12T05:21:48.710Z,13.70
2022-12-12T05:24:36.536Z,13.17
2022-12-12T05:27:23.435Z,13.60
2022-12-12T05:33:46.606Z,12.97
2022-12-12T05:36:33.575Z,13.70
2022-12-12T05:39:20.509Z,14.87
2022-12-12T05:42:08.331Z,13.63
2022-12-12T05:44:55.610Z,13.97
2022-12-12T05:47:42.776Z,14.43
2022-12-12T05:50:29.767Z,13.07
2022-12-12T05:53:17.141Z,13.20
2022-12-12T05:56:05.892Z,12.43
2022-12-12T05:58:53.707Z,12.43
2022-12-12T06:01:41.021Z,12.40
2022-12-12T06:04:28.480Z,12.90
2022-12-12T06:07:15.472Z,11.67
2022-12-12T06:10:03.132Z,12.67
2022-12-12T06:12:50.065Z,11.30
2022-12-12T06:15:39.937Z,12.23
2022-12-12T06:18:26.908Z,12.23
2022-12-12T06:21:13.858Z,11.43
2022-12-12T06:24:00.805Z,12.43
2022-12-12T06:26:47.924Z,12.37
2022-12-12T06:29:35.105Z,12.13
2022-12-12T06:32:22.823Z,11.50
2022-12-12T06:35:11.326Z,11.73
2022-12-12T06:37:59.357Z,11.97
2022-12-12T06:40:46.772Z,12.73
2022-12-12T06:43:33.915Z,12.23
2022-12-12T06:46:22.637Z,12.17
2022-12-12T06:49:10.398Z,12.03
2022-12-12T06:51:57.378Z,12.37
2022-12-12T06:54:44.389Z,12.13
2022-12-12T06:57:31.636Z,11.77
2022-12-12T07:00:20.701Z,12.50
2022-12-12T07:03:09.622Z,11.43
2022-12-12T07:05:57.522Z,12.60
2022-12-12T07:08:44.773Z,12.53
2022-12-12T07:11:31.764Z,12.20
2022-12-12T07:14:19.055Z,12.43
2022-12-12T07:17:06.239Z,12.43
2022-12-12T07:19:53.469Z,12.93
2022-12-12T07:22:42.180Z,12.87
2022-12-12T07:25:29.115Z,12.40
2022-12-12T07:28:16.784Z,13.17
2022-12-12T07:31:06.271Z,13.77
2022-12-12T07:33:54.338Z,13.23
2022-12-12T07:36:41.538Z,14.63
2022-12-12T07:39:30.663Z,14.07
2022-12-12T07:42:17.836Z,14.00
2022-12-12T07:45:06.425Z,12.53
2022-12-12T07:47:54.119Z,13.03
2022-12-12T07:50:41.939Z,12.60
2022-12-12T07:53:38.109Z,13.13
2022-12-12T07:56:25.674Z,13.57
2022-12-12T07:59:13.055Z,12.73
2022-12-12T08:02:00.264Z,13.97
2022-12-12T08:04:47.376Z,14.03
2022-12-12T08:07:34.581Z,13.00
2022-12-12T08:10:21.999Z,14.27
2022-12-12T08:13:10.700Z,14.20
2022-12-12T08:15:58.101Z,14.37
2022-12-12T08:18:46.009Z,15.27
2022-12-12T08:21:33.807Z,15.57
2022-12-12T08:24:21.737Z,14.70
2022-12-12T08:27:13.833Z,14.63
2022-12-12T08:30:04.216Z,13.70
2022-12-12T08:32:51.676Z,13.30
2022-12-12T08:35:44.699Z,13.50
2022-12-12T08:38:31.657Z,13.50
2022-12-12T08:41:19.339Z,14.57
2022-12-12T08:44:06.596Z,14.20
2022-12-12T08:46:54.598Z,15.87
2022-12-12T08:50:08.783Z,15.23
2022-12-12T08:52:55.974Z,15.97
2022-12-12T08:55:42.914Z,15.60
2022-12-12T08:58:30.112Z,16.20
2022-12-12T09:01:19.339Z,15.40
2022-12-12T09:04:07.506Z,16.23
2022-12-12T09:06:54.751Z,15.60
2022-12-12T09:09:50.159Z,16.90
2022-12-12T09:12:41.649Z,17.23
2022-12-12T09:15:29.127Z,17.03
2022-12-12T09:18:16.105Z,16.00
2022-12-12T09:21:05.241Z,18.23
2022-12-12T09:23:52.236Z,17.47
2022-12-12T09:26:39.183Z,17.47
2022-12-12T09:29:26.712Z,16.20
2022-12-12T09:32:13.679Z,15.57
2022-12-12T09:35:00.581Z,15.40
2022-12-12T09:37:48.474Z,16.67
2022-12-12T09:40:39.709Z,17.70
2022-12-12T09:43:31.297Z,16.53
2022-12-12T09:46:29.774Z,16.53
2022-12-12T09:49:22.679Z,16.20
2022-12-12T09:52:11.870Z,16.07
2022-12-12T09:55:02.328Z,16.27
2022-12-12T09:57:57.352Z,16.13
2022-12-12T10:00:48.096Z,16.30
2022-12-12T10:03:49.727Z,15.57
2022-12-12T10:06:43.530Z,15.60
2022-12-12T10:09:40.806Z,15.87
2022-12-12T10:12:29.967Z,15.83
2022-12-12T10:15:27.782Z,14.97
2022-12-12T10:18:18.740Z,14.70
2022-12-12T10:21:14.383Z,14.20
2022-12-12T10:27:36.152Z,13.53
2022-12-12T10:30:23.839Z,13.07
2022-12-12T10:33:22.832Z,13.00
2022-12-12T10:36:19.304Z,12.43
2022-12-12T10:39:18.381Z,12.80
2022-12-12T10:42:16.543Z,11.87
2022-12-12T10:45:25.407Z,12.37
2022-12-12T10:48:12.415Z,12.50
2022-12-12T10:51:02.920Z,11.93
2022-12-12T10:53:49.967Z,11.60
2022-12-12T10:56:58.599Z,11.27
2022-12-12T10:59:48.042Z,11.83
2022-12-12T11:02:38.164Z,11.90
2022-12-12T11:05:27.918Z,11.60
2022-12-12T11:08:22.029Z,11.87
2022-12-12T11:11:22.812Z,11.30
2022-12-12T11:14:23.012Z,10.60
2022-12-12T11:17:21.465Z,10.87
2022-12-12T11:20:17.753Z,10.73
2022-12-12T11:23:05.290Z,10.93
2022-12-12T11:25:56.769Z,11.13
2022-12-12T11:28:46.749Z,9.93
2022-12-12T11:31:35.283Z,9.50
2022-12-12T11:34:24.503Z,9.83
2022-12-12T11:37:16.561Z,10.77
2022-12-12T11:40:06.004Z,9.40
2022-12-12T11:43:07.932Z,9.47
2022-12-12T11:45:59.187Z,9.07
2022-12-12T11:48:56.482Z,9.43
2022-12-12T11:51:44.885Z,9.10
2022-12-12T11:54:32.712Z,9.73
2022-12-12T11:57:34.393Z,8.63
2022-12-12T12:00:23.399Z,8.57
2022-12-12T12:03:26.544Z,9.47
2022-12-12T12:06:25.304Z,8.90
2022-12-12T12:09:24.931Z,8.57
2022-12-12T12:12:16.923Z,7.87
2022-12-12T12:15:29.376Z,8.30
2022-12-12T12:18:31.264Z,8.00
2022-12-12T12:21:39.304Z,8.27
2022-12-12T12:24:48.807Z,8.37
2022-12-12T12:27:42.320Z,8.37
2022-12-12T12:30:33.962Z,8.93
2022-12-12T12:33:43.744Z,8.30
2022-12-12T12:36:40.223Z,7.53
2022-12-12T12:39:51.369Z,7.27
2022-12-12T12:42:50.379Z,7.13
2022-12-12T12:45:44.952Z,7.30
2022-12-12T12:48:36.703Z,7.23
2022-12-12T12:51:31.143Z,7.97
2022-12-12T12:54:24.222Z,7.00
2022-12-12T12:57:15.863Z,7.97
2022-12-12T13:00:15.180Z,8.00
2022-12-12T13:03:08.050Z,7.63
2022-12-12T13:05:59.285Z,6.80
2022-12-12T13:08:55.018Z,8.13
2022-12-12T13:11:47.714Z,8.53
2022-12-12T13:14:40.849Z,8.97
2022-12-12T13:17:43.973Z,11.97
2022-12-12T13:20:34.971Z,10.60
2022-12-12T13:23:46.451Z,8.43
2022-12-12T13:26:43.902Z,7.43
2022-12-12T13:29:36.018Z,6.87
2022-12-12T13:33:04.330Z,6.90
2022-12-12T13:35:55.582Z,7.47
2022-12-12T13:38:49.469Z,7.63
2022-12-12T13:41:59.033Z,7.00
2022-12-12T13:44:48.316Z,7.17
2022-12-12T13:48:05.926Z,7.03
2022-12-12T13:51:27.085Z,6.47
2022-12-12T13:54:43.665Z,7.43
2022-12-12T13:57:31.798Z,7.30
2022-12-12T14:00:20.271Z,7.30
2022-12-12T14:03:28.554Z,9.43
2022-12-12T14:06:19.022Z,7.80
2022-12-12T14:09:05.924Z,7.93
2022-12-12T14:11:53.333Z,8.83
2022-12-12T14:14:42.413Z,9.40
2022-12-12T14:17:35.396Z,14.27
2022-12-12T14:20:30.864Z,13.23
2022-12-12T14:23:28.119Z,11.53
2022-12-12T14:26:49.735Z,10.43
2022-12-12T14:29:39.890Z,8.23
2022-12-12T14:32:48.684Z,7.27
2022-12-12T14:35:43.240Z,6.90
2022-12-12T14:38:38.787Z,13.67
2022-12-12T14:41:37.103Z,8.87
2022-12-12T14:44:37.501Z,9.40
2022-12-12T14:47:29.160Z,9.50
2022-12-12T14:50:17.033Z,10.27
2022-12-12T14:53:15.501Z,10.60
2022-12-12T14:56:08.079Z,10.53
2022-12-12T14:58:58.915Z,10.97
2022-12-12T15:01:48.409Z,11.40
2022-12-12T15:04:39.364Z,10.07
2022-12-12T15:07:28.325Z,9.33
2022-12-12T15:10:24.092Z,10.07
2022-12-12T15:13:16.325Z,9.53
2022-12-12T15:16:03.578Z,9.23
2022-12-12T15:18:51.284Z,10.00
2022-12-12T15:21:38.408Z,10.00
2022-12-12T15:24:27.553Z,9.17
2022-12-12T15:27:20.014Z,9.73
2022-12-12T15:30:13.020Z,10.23
2022-12-12T15:33:01.178Z,9.43
2022-12-12T15:35:49.469Z,8.87
2022-12-12T15:38:36.651Z,9.20
2022-12-12T15:41:23.653Z,9.40
2022-12-12T15:44:16.863Z,9.80
2022-12-12T15:47:04.159Z,10.97
2022-12-12T15:49:52.861Z,9.53
2022-12-12T15:52:39.983Z,10.20
2022-12-12T15:55:27.626Z,10.63
2022-12-12T15:58:28.946Z,10.30
2022-12-12T16:01:20.442Z,10.70
2022-12-12T16:04:23.141Z,11.87
2022-12-12T16:07:19.775Z,10.10
2022-12-12T16:10:21.950Z,12.87
2022-12-12T16:13:23.338Z,11.43
2022-12-12T16:16:40.963Z,12.20
2022-12-12T16:19:39.777Z,12.83
2022-12-12T16:22:32.487Z,13.53
2022-12-12T16:25:21.636Z,12.37
2022-12-12T16:28:24.992Z,12.03
2022-12-12T16:31:16.426Z,11.83
2022-12-12T16:34:04.411Z,12.07
2022-12-12T16:36:51.769Z,10.23
2022-12-12T16:39:38.920Z,10.63
2022-12-12T16:42:28.631Z,10.83
2022-12-12T16:45:15.674Z,10.03
2022-12-12T16:48:13.143Z,10.93
2022-12-12T16:51:03.797Z,11.03
2022-12-12T16:53:50.731Z,11.50
2022-12-12T16:56:37.824Z,10.57
2022-12-12T16:59:25.180Z,9.10
2022-12-12T17:02:18.228Z,10.00
2022-12-12T17:05:06.565Z,9.57
2022-12-12T17:07:57.042Z,10.87
2022-12-12T17:10:45.129Z,12.80
2022-12-12T17:13:33.153Z,12.17
2022-12-12T17:16:27.390Z,12.97
2022-12-12T17:19:15.296Z,14.23
2022-12-12T17:22:02.455Z,13.77
2022-12-12T17:24:50.495Z,13.00
2022-12-12T17:27:37.856Z,13.53
2022-12-12T17:30:25.037Z,13.70
2022-12-12T17:33:18.354Z,14.73
2022-12-12T17:36:07.051Z,14.60
2022-12-12T17:38:57.446Z,14.30
2022-12-12T17:41:45.833Z,14.10
2022-12-12T17:44:32.973Z,14.67
2022-12-12T17:47:19.851Z,13.90
2022-12-12T17:50:08.754Z,13.93
2022-12-12T17:52:55.949Z,16.20
2022-12-12T17:55:51.665Z,15.73
2022-12-12T17:59:08.394Z,15.87
2022-12-12T18:01:55.541Z,15.00
2022-12-12T18:04:42.905Z,16.37
2022-12-12T18:07:29.908Z,16.47
2022-12-12T18:10:19.721Z,17.03
2022-12-12T18:13:07.323Z,17.33
2022-12-12T18:15:55.440Z,16.13
2022-12-12T18:18:51.207Z,15.57
2022-12-12T18:24:48.963Z,15.90
2022-12-12T18:27:37.513Z,17.07
2022-12-12T18:30:24.566Z,17.70
2022-12-12T18:33:13.252Z,17.23
2022-12-12T18:36:02.245Z,16.63
2022-12-12T18:38:49.868Z,17.00
2022-12-12T18:41:37.140Z,17.87
2022-12-12T18:44:24.444Z,17.10
2022-12-12T18:47:11.433Z,16.73
2022-12-12T18:49:59.354Z,14.60
2022-12-12T18:52:46.945Z,14.97
2022-12-12T18:56:49.773Z,15.13
2022-12-12T18:59:36.995Z,14.20
2022-12-12T19:02:25.179Z,13.70
2022-12-12T19:05:13.661Z,13.40
2022-12-12T19:08:00.670Z,17.47
2022-12-12T19:10:48.321Z,23.03
2022-12-12T19:13:38.125Z,22.00
2022-12-12T19:16:25.677Z,24.87
2022-12-12T19:19:13.233Z,24.27
2022-12-12T19:22:08.869Z,20.33
2022-12-12T19:25:11.957Z,16.90
2022-12-12T19:28:48.984Z,16.63
2022-12-12T19:31:36.145Z,18.43
2022-12-12T19:34:23.484Z,20.07
2022-12-12T19:37:11.153Z,23.57
2022-12-12T19:39:58.643Z,35.87
2022-12-12T19:42:45.863Z,27.97
2022-12-12T19:45:32.871Z,17.83
2022-12-12T19:48:19.832Z,15.97
2022-12-12T19:51:09.395Z,19.77
2022-12-12T19:53:59.196Z,20.83
2022-12-12T19:56:46.695Z,19.40
2022-12-12T19:59:33.701Z,18.43
2022-12-12T20:02:20.769Z,17.53
2022-12-12T20:05:09.569Z,18.30
2022-12-12T20:07:56.836Z,16.07
2022-12-12T20:10:46.078Z,14.50
2022-12-12T20:13:34.033Z,15.07
2022-12-12T20:16:23.056Z,14.60
2022-12-12T20:19:11.238Z,16.90
2022-12-12T20:22:01.244Z,15.83
2022-12-12T20:25:16.387Z,15.80
2022-12-12T20:28:04.306Z,14.13
2022-12-12T20:31:01.774Z,15.70
2022-12-12T20:33:49.042Z,15.97
2022-12-12T20:36:36.694Z,15.10
2022-12-12T20:39:25.156Z,14.80
2022-12-12T20:42:12.578Z,15.00
2022-12-12T20:45:01.314Z,15.57
2022-12-12T20:47:48.540Z,15.27
2022-12-12T20:50:36.167Z,15.93
2022-12-12T20:53:23.095Z,14.57
2022-12-12T20:56:13.292Z,15.03
2022-12-12T20:59:02.150Z,14.60
2022-12-12T21:01:50.093Z,13.53
2022-12-12T21:04:38.039Z,15.47
2022-12-12T21:07:25.487Z,14.43
2022-12-12T21:10:13.141Z,14.37
2022-12-12T21:13:00.076Z,14.60
2022-12-12T21:15:47.295Z,15.57
2022-12-12T21:18:35.453Z,16.83
2022-12-12T21:21:24.150Z,16.40
2022-12-12T21:24:12.010Z,17.40
2022-12-12T21:26:59.231Z,15.83
2022-12-12T21:29:46.514Z,15.27
2022-12-12T21:32:34.582Z,15.23
2022-12-12T21:35:22.774Z,14.73
2022-12-12T21:38:10.415Z,16.07
2022-12-12T21:40:57.606Z,15.13
2022-12-12T21:50:05.631Z,14.47
2022-12-12T21:53:11.743Z,14.50
2022-12-12T21:56:04.232Z,14.17
2022-12-12T21:58:51.152Z,16.20
2022-12-12T22:01:42.075Z,16.67
2022-12-12T22:04:29.859Z,16.87
2022-12-12T22:07:18.923Z,17.00
2022-12-12T22:10:10.952Z,18.30
2022-12-12T22:12:59.143Z,16.70
2022-12-12T22:16:17.023Z,16.80
2022-12-12T22:19:06.209Z,16.17
2022-12-12T22:21:53.860Z,16.07
2022-12-12T22:24:41.209Z,15.47
2022-12-12T22:27:29.237Z,16.17
2022-12-12T22:30:17.669Z,15.70
2022-12-12T22:33:04.808Z,16.03
2022-12-12T22:35:53.828Z,15.97
2022-12-12T22:38:40.801Z,16.10
2022-12-12T22:41:29.240Z,15.07
2022-12-12T22:44:19.193Z,15.87
2022-12-12T22:47:06.524Z,15.93
2022-12-12T22:49:53.689Z,14.90
2022-12-12T22:52:40.756Z,15.53
2022-12-12T22:55:28.206Z,14.97
2022-12-12T22:58:15.554Z,15.33
2022-12-12T23:01:09.032Z,14.73
2022-12-12T23:03:57.215Z,14.80
2022-12-12T23:06:44.706Z,14.87
2022-12-12T23:09:32.284Z,15.30
2022-12-12T23:12:19.347Z,15.10
2022-12-12T23:15:08.216Z,16.37
2022-12-12T23:17:56.330Z,15.23
2022-12-12T23:20:45.574Z,15.53
2022-12-12T23:23:33.723Z,15.40
2022-12-12T23:26:23.207Z,14.90
2022-12-12T23:29:14.239Z,15.17
2022-12-12T23:32:02.423Z,14.90
2022-12-12T23:34:50.727Z,16.17
2022-12-12T23:37:37.674Z,15.70
2022-12-12T23:40:24.871Z,15.90
2022-12-12T23:43:12.249Z,15.30
2022-12-12T23:46:01.231Z,15.30
2022-12-12T23:48:48.520Z,15.20
2022-12-12T23:51:38.187Z,15.17
2022-12-12T23:54:27.555Z,14.53
2022-12-12T23:57:14.957Z,14.17
